sensor_id;sensor_type;location;lat;lon;timestamp;P1;durP1;ratioP1;P2;durP2;ratioP2
79145;SDS011;68792;53.338;-1.502;2023-05-10T00:01:21;2.58;;;0.80;;
79145;SDS011;68792;53.338;-1.502;2023-05-10T00:03:46;3.58;;;1.00;;
79145;SDS011;68792;53.338;-1.502;2023-05-10T00:06:12;3.70;;;0.80;;
79145;SDS011;68792;53.338;-1.502;2023-05-10T00:08:37;2.20;;;0.80;;
79145;SDS011;68792;53.338;-1.502;2023-05-10T00:11:02;2.80;;;1.25;;
79145;SDS011;68792;53.338;-1.502;2023-05-10T00:13:28;2.38;;;0.80;;
79145;SDS011;68792;53.338;-1.502;2023-05-10T00:15:53;3.28;;;0.93;;
79145;SDS011;68792;53.338;-1.502;2023-05-10T00:18:19;2.90;;;1.00;;
79145;SDS011;68792;53.338;-1.502;2023-05-10T00:20:44;2.63;;;1.05;;
79145;SDS011;68792;53.338;-1.502;2023-05-10T00:25:36;1.90;;;0.90;;
79145;SDS011;68792;53.338;-1.502;2023-05-10T00:28:01;2.25;;;0.68;;
79145;SDS011;68792;53.338;-1.502;2023-05-10T00:30:27;2.40;;;1.20;;
79145;SDS011;68792;53.338;-1.502;2023-05-10T00:32:52;3.13;;;0.90;;
79145;SDS011;68792;53.338;-1.502;2023-05-10T00:35:18;2.35;;;0.90;;
79145;SDS011;68792;53.338;-1.502;2023-05-10T00:37:43;1.95;;;0.75;;
79145;SDS011;68792;53.338;-1.502;2023-05-10T00:40:09;2.28;;;0.80;;
79145;SDS011;68792;53.338;-1.502;2023-05-10T00:42:35;1.77;;;0.90;;
79145;SDS011;68792;53.338;-1.502;2023-05-10T00:45:00;1.92;;;0.80;;
79145;SDS011;68792;53.338;-1.502;2023-05-10T00:47:26;2.58;;;0.70;;
79145;SDS011;68792;53.338;-1.502;2023-05-10T00:49:52;2.30;;;1.17;;
79145;SDS011;68792;53.338;-1.502;2023-05-10T00:52:17;2.65;;;0.50;;
79145;SDS011;68792;53.338;-1.502;2023-05-10T00:54:43;2.75;;;0.70;;
79145;SDS011;68792;53.338;-1.502;2023-05-10T00:57:08;2.90;;;0.70;;
79145;SDS011;68792;53.338;-1.502;2023-05-10T00:59:34;2.88;;;0.70;;
79145;SDS011;68792;53.338;-1.502;2023-05-10T01:01:59;3.80;;;0.95;;
79145;SDS011;68792;53.338;-1.502;2023-05-10T01:04:25;1.33;;;0.52;;
79145;SDS011;68792;53.338;-1.502;2023-05-10T01:06:51;2.83;;;0.82;;
79145;SDS011;68792;53.338;-1.502;2023-05-10T01:09:18;2.78;;;0.80;;
79145;SDS011;68792;53.338;-1.502;2023-05-10T01:11:44;2.75;;;0.75;;
79145;SDS011;68792;53.338;-1.502;2023-05-10T01:14:09;2.42;;;0.65;;
79145;SDS011;68792;53.338;-1.502;2023-05-10T01:16:36;2.08;;;0.65;;
79145;SDS011;68792;53.338;-1.502;2023-05-10T01:19:04;2.65;;;0.73;;
79145;SDS011;68792;53.338;-1.502;2023-05-10T01:21:38;3.55;;;1.00;;
79145;SDS011;68792;53.338;-1.502;2023-05-10T01:43:37;3.03;;;0.60;;
79145;SDS011;68792;53.338;-1.502;2023-05-10T01:46:17;1.88;;;0.63;;
79145;SDS011;68792;53.338;-1.502;2023-05-10T01:48:48;1.92;;;0.60;;
79145;SDS011;68792;53.338;-1.502;2023-05-10T01:51:27;3.42;;;0.90;;
79145;SDS011;68792;53.338;-1.502;2023-05-10T01:53:59;2.13;;;0.80;;
79145;SDS011;68792;53.338;-1.502;2023-05-10T01:56:26;2.05;;;0.50;;
79145;SDS011;68792;53.338;-1.502;2023-05-10T01:58:53;1.67;;;0.60;;
79145;SDS011;68792;53.338;-1.502;2023-05-10T02:01:20;3.03;;;0.98;;
79145;SDS011;68792;53.338;-1.502;2023-05-10T02:03:46;3.13;;;0.65;;
79145;SDS011;68792;53.338;-1.502;2023-05-10T02:06:12;2.22;;;0.52;;
79145;SDS011;68792;53.338;-1.502;2023-05-10T02:08:39;2.90;;;0.65;;
79145;SDS011;68792;53.338;-1.502;2023-05-10T02:11:05;1.10;;;0.55;;
79145;SDS011;68792;53.338;-1.502;2023-05-10T02:13:31;2.90;;;0.82;;
79145;SDS011;68792;53.338;-1.502;2023-05-10T02:15:59;3.08;;;0.43;;
79145;SDS011;68792;53.338;-1.502;2023-05-10T02:18:25;1.50;;;0.40;;
79145;SDS011;68792;53.338;-1.502;2023-05-10T02:20:50;2.00;;;0.60;;
79145;SDS011;68792;53.338;-1.502;2023-05-10T02:23:17;2.15;;;0.50;;
79145;SDS011;68792;53.338;-1.502;2023-05-10T02:28:09;1.58;;;0.60;;
79145;SDS011;68792;53.338;-1.502;2023-05-10T02:30:36;2.22;;;0.45;;
79145;SDS011;68792;53.338;-1.502;2023-05-10T02:33:02;1.95;;;0.60;;
79145;SDS011;68792;53.338;-1.502;2023-05-10T02:35:29;3.03;;;0.70;;
79145;SDS011;68792;53.338;-1.502;2023-05-10T02:37:56;3.25;;;0.80;;
79145;SDS011;68792;53.338;-1.502;2023-05-10T02:40:22;3.63;;;0.80;;
79145;SDS011;68792;53.338;-1.502;2023-05-10T02:42:48;2.67;;;0.50;;
79145;SDS011;68792;53.338;-1.502;2023-05-10T02:45:18;3.25;;;0.60;;
79145;SDS011;68792;53.338;-1.502;2023-05-10T02:47:45;3.50;;;0.77;;
79145;SDS011;68792;53.338;-1.502;2023-05-10T02:50:10;2.53;;;0.60;;
79145;SDS011;68792;53.338;-1.502;2023-05-10T02:52:43;1.92;;;0.50;;
79145;SDS011;68792;53.338;-1.502;2023-05-10T02:55:11;2.20;;;0.70;;
79145;SDS011;68792;53.338;-1.502;2023-05-10T02:57:38;2.15;;;0.80;;
79145;SDS011;68792;53.338;-1.502;2023-05-10T03:00:08;4.50;;;0.70;;
79145;SDS011;68792;53.338;-1.502;2023-05-10T03:02:34;1.88;;;0.55;;
79145;SDS011;68792;53.338;-1.502;2023-05-10T03:05:00;1.52;;;0.60;;
79145;SDS011;68792;53.338;-1.502;2023-05-10T03:07:25;2.13;;;0.50;;
79145;SDS011;68792;53.338;-1.502;2023-05-10T03:09:51;2.65;;;0.80;;
79145;SDS011;68792;53.338;-1.502;2023-05-10T03:15:17;2.67;;;0.70;;
79145;SDS011;68792;53.338;-1.502;2023-05-10T03:17:52;1.88;;;0.70;;
79145;SDS011;68792;53.338;-1.502;2023-05-10T03:20:22;1.23;;;0.60;;
79145;SDS011;68792;53.338;-1.502;2023-05-10T03:23:00;1.60;;;0.93;;
79145;SDS011;68792;53.338;-1.502;2023-05-10T03:25:33;1.70;;;0.50;;
79145;SDS011;68792;53.338;-1.502;2023-05-10T03:27:59;3.00;;;0.60;;
79145;SDS011;68792;53.338;-1.502;2023-05-10T03:30:26;3.05;;;0.80;;
79145;SDS011;68792;53.338;-1.502;2023-05-10T03:32:52;2.80;;;0.73;;
79145;SDS011;68792;53.338;-1.502;2023-05-10T03:35:17;2.17;;;0.60;;
79145;SDS011;68792;53.338;-1.502;2023-05-10T03:37:42;2.03;;;0.50;;
79145;SDS011;68792;53.338;-1.502;2023-05-10T03:40:08;1.52;;;0.50;;
79145;SDS011;68792;53.338;-1.502;2023-05-10T03:44:59;2.70;;;0.90;;
79145;SDS011;68792;53.338;-1.502;2023-05-10T03:47:25;3.85;;;0.60;;
79145;SDS011;68792;53.338;-1.502;2023-05-10T03:49:50;2.55;;;0.68;;
79145;SDS011;68792;53.338;-1.502;2023-05-10T03:52:16;2.92;;;0.68;;
79145;SDS011;68792;53.338;-1.502;2023-05-10T03:54:41;2.35;;;0.80;;
79145;SDS011;68792;53.338;-1.502;2023-05-10T03:57:07;2.75;;;0.98;;
79145;SDS011;68792;53.338;-1.502;2023-05-10T03:59:33;2.95;;;0.60;;
79145;SDS011;68792;53.338;-1.502;2023-05-10T04:01:58;1.58;;;0.57;;
79145;SDS011;68792;53.338;-1.502;2023-05-10T04:04:24;2.35;;;0.50;;
79145;SDS011;68792;53.338;-1.502;2023-05-10T04:06:49;2.30;;;0.65;;
79145;SDS011;68792;53.338;-1.502;2023-05-10T04:09:15;2.10;;;0.60;;
79145;SDS011;68792;53.338;-1.502;2023-05-10T04:11:41;1.60;;;0.70;;
79145;SDS011;68792;53.338;-1.502;2023-05-10T04:14:07;1.58;;;0.68;;
79145;SDS011;68792;53.338;-1.502;2023-05-10T04:16:32;3.25;;;0.70;;
79145;SDS011;68792;53.338;-1.502;2023-05-10T04:18:58;1.80;;;0.55;;
79145;SDS011;68792;53.338;-1.502;2023-05-10T04:21:24;1.80;;;0.80;;
79145;SDS011;68792;53.338;-1.502;2023-05-10T04:23:50;1.90;;;0.93;;
79145;SDS011;68792;53.338;-1.502;2023-05-10T04:26:15;3.13;;;0.82;;
79145;SDS011;68792;53.338;-1.502;2023-05-10T04:28:41;3.50;;;0.50;;
79145;SDS011;68792;53.338;-1.502;2023-05-10T04:31:07;3.45;;;0.80;;
79145;SDS011;68792;53.338;-1.502;2023-05-10T04:33:33;2.40;;;0.82;;
79145;SDS011;68792;53.338;-1.502;2023-05-10T04:35:59;3.13;;;0.70;;
79145;SDS011;68792;53.338;-1.502;2023-05-10T04:40:51;1.55;;;0.50;;
79145;SDS011;68792;53.338;-1.502;2023-05-10T04:43:17;2.33;;;0.70;;
79145;SDS011;68792;53.338;-1.502;2023-05-10T04:45:43;3.00;;;0.70;;
79145;SDS011;68792;53.338;-1.502;2023-05-10T04:48:08;2.53;;;0.80;;
79145;SDS011;68792;53.338;-1.502;2023-05-10T04:50:33;1.38;;;0.57;;
79145;SDS011;68792;53.338;-1.502;2023-05-10T04:52:59;1.35;;;0.70;;
79145;SDS011;68792;53.338;-1.502;2023-05-10T04:55:24;2.45;;;0.68;;
79145;SDS011;68792;53.338;-1.502;2023-05-10T04:57:51;2.40;;;0.80;;
79145;SDS011;68792;53.338;-1.502;2023-05-10T05:00:16;3.03;;;0.90;;
79145;SDS011;68792;53.338;-1.502;2023-05-10T05:02:43;3.95;;;0.90;;
79145;SDS011;68792;53.338;-1.502;2023-05-10T05:05:10;2.38;;;1.00;;
79145;SDS011;68792;53.338;-1.502;2023-05-10T05:07:35;2.45;;;1.05;;
79145;SDS011;68792;53.338;-1.502;2023-05-10T05:10:01;2.38;;;0.95;;
79145;SDS011;68792;53.338;-1.502;2023-05-10T05:12:26;2.67;;;0.90;;
79145;SDS011;68792;53.338;-1.502;2023-05-10T05:14:51;2.53;;;0.82;;
79145;SDS011;68792;53.338;-1.502;2023-05-10T05:17:17;3.17;;;0.82;;
79145;SDS011;68792;53.338;-1.502;2023-05-10T05:19:42;2.75;;;1.00;;
79145;SDS011;68792;53.338;-1.502;2023-05-10T05:22:07;2.92;;;1.17;;
79145;SDS011;68792;53.338;-1.502;2023-05-10T05:24:36;2.05;;;0.60;;
79145;SDS011;68792;53.338;-1.502;2023-05-10T05:27:04;2.10;;;0.70;;
79145;SDS011;68792;53.338;-1.502;2023-05-10T05:29:30;1.67;;;0.80;;
79145;SDS011;68792;53.338;-1.502;2023-05-10T05:31:56;2.83;;;1.00;;
79145;SDS011;68792;53.338;-1.502;2023-05-10T05:34:21;2.83;;;0.60;;
79145;SDS011;68792;53.338;-1.502;2023-05-10T05:36:47;2.50;;;0.70;;
79145;SDS011;68792;53.338;-1.502;2023-05-10T05:39:12;3.92;;;1.45;;
79145;SDS011;68792;53.338;-1.502;2023-05-10T05:41:38;2.15;;;0.80;;
79145;SDS011;68792;53.338;-1.502;2023-05-10T05:44:03;2.70;;;0.77;;
79145;SDS011;68792;53.338;-1.502;2023-05-10T05:46:29;2.03;;;1.20;;
79145;SDS011;68792;53.338;-1.502;2023-05-10T05:48:54;2.45;;;0.82;;
79145;SDS011;68792;53.338;-1.502;2023-05-10T05:51:20;2.20;;;0.82;;
79145;SDS011;68792;53.338;-1.502;2023-05-10T05:53:45;2.30;;;0.75;;
79145;SDS011;68792;53.338;-1.502;2023-05-10T05:56:10;2.03;;;1.00;;
79145;SDS011;68792;53.338;-1.502;2023-05-10T05:58:36;2.95;;;1.02;;
79145;SDS011;68792;53.338;-1.502;2023-05-10T06:01:01;2.10;;;0.90;;
79145;SDS011;68792;53.338;-1.502;2023-05-10T06:03:27;2.50;;;0.90;;
79145;SDS011;68792;53.338;-1.502;2023-05-10T06:05:52;1.75;;;1.00;;
79145;SDS011;68792;53.338;-1.502;2023-05-10T06:08:17;3.33;;;0.90;;
79145;SDS011;68792;53.338;-1.502;2023-05-10T06:10:52;1.90;;;0.95;;
79145;SDS011;68792;53.338;-1.502;2023-05-10T06:13:19;2.80;;;1.00;;
79145;SDS011;68792;53.338;-1.502;2023-05-10T06:15:45;2.38;;;1.05;;
79145;SDS011;68792;53.338;-1.502;2023-05-10T06:18:11;1.67;;;0.80;;
79145;SDS011;68792;53.338;-1.502;2023-05-10T06:20:36;3.42;;;1.10;;
79145;SDS011;68792;53.338;-1.502;2023-05-10T06:23:02;2.42;;;1.02;;
79145;SDS011;68792;53.338;-1.502;2023-05-10T06:25:27;2.10;;;0.90;;
79145;SDS011;68792;53.338;-1.502;2023-05-10T06:27:52;2.97;;;1.10;;
79145;SDS011;68792;53.338;-1.502;2023-05-10T06:30:22;3.67;;;1.17;;
79145;SDS011;68792;53.338;-1.502;2023-05-10T06:32:52;3.92;;;1.27;;
79145;SDS011;68792;53.338;-1.502;2023-05-10T06:35:17;1.80;;;1.05;;
79145;SDS011;68792;53.338;-1.502;2023-05-10T06:37:43;2.97;;;1.00;;
79145;SDS011;68792;53.338;-1.502;2023-05-10T06:40:09;1.73;;;0.93;;
79145;SDS011;68792;53.338;-1.502;2023-05-10T06:42:34;2.17;;;0.95;;
79145;SDS011;68792;53.338;-1.502;2023-05-10T06:45:00;2.80;;;1.20;;
79145;SDS011;68792;53.338;-1.502;2023-05-10T06:47:25;2.10;;;0.80;;
79145;SDS011;68792;53.338;-1.502;2023-05-10T06:49:50;3.08;;;1.15;;
79145;SDS011;68792;53.338;-1.502;2023-05-10T06:52:16;3.00;;;1.10;;
79145;SDS011;68792;53.338;-1.502;2023-05-10T06:54:41;3.75;;;1.30;;
79145;SDS011;68792;53.338;-1.502;2023-05-10T06:57:07;1.58;;;1.00;;
79145;SDS011;68792;53.338;-1.502;2023-05-10T06:59:32;2.30;;;1.02;;
79145;SDS011;68792;53.338;-1.502;2023-05-10T07:01:57;3.65;;;1.40;;
79145;SDS011;68792;53.338;-1.502;2023-05-10T07:04:23;3.53;;;1.38;;
79145;SDS011;68792;53.338;-1.502;2023-05-10T07:06:48;1.85;;;0.90;;
79145;SDS011;68792;53.338;-1.502;2023-05-10T07:09:14;2.78;;;1.38;;
79145;SDS011;68792;53.338;-1.502;2023-05-10T07:11:40;1.95;;;0.90;;
79145;SDS011;68792;53.338;-1.502;2023-05-10T07:14:08;2.20;;;0.80;;
79145;SDS011;68792;53.338;-1.502;2023-05-10T07:16:34;2.03;;;1.00;;
79145;SDS011;68792;53.338;-1.502;2023-05-10T07:19:00;3.85;;;1.23;;
79145;SDS011;68792;53.338;-1.502;2023-05-10T07:21:25;2.75;;;1.30;;
79145;SDS011;68792;53.338;-1.502;2023-05-10T07:23:53;3.47;;;1.20;;
79145;SDS011;68792;53.338;-1.502;2023-05-10T07:26:19;2.28;;;0.98;;
79145;SDS011;68792;53.338;-1.502;2023-05-10T07:28:44;2.78;;;1.23;;
79145;SDS011;68792;53.338;-1.502;2023-05-10T07:31:09;2.33;;;1.15;;
79145;SDS011;68792;53.338;-1.502;2023-05-10T07:33:35;2.30;;;1.00;;
79145;SDS011;68792;53.338;-1.502;2023-05-10T07:36:00;2.45;;;1.10;;
79145;SDS011;68792;53.338;-1.502;2023-05-10T07:38:26;1.63;;;1.10;;
79145;SDS011;68792;53.338;-1.502;2023-05-10T07:40:51;1.92;;;0.80;;
79145;SDS011;68792;53.338;-1.502;2023-05-10T07:43:17;3.55;;;1.10;;
79145;SDS011;68792;53.338;-1.502;2023-05-10T07:45:42;2.90;;;1.10;;
79145;SDS011;68792;53.338;-1.502;2023-05-10T07:48:08;2.22;;;0.95;;
79145;SDS011;68792;53.338;-1.502;2023-05-10T07:50:33;2.55;;;1.10;;
79145;SDS011;68792;53.338;-1.502;2023-05-10T07:52:59;2.08;;;0.85;;
79145;SDS011;68792;53.338;-1.502;2023-05-10T07:55:24;1.30;;;0.80;;
79145;SDS011;68792;53.338;-1.502;2023-05-10T07:57:50;1.95;;;1.08;;
79145;SDS011;68792;53.338;-1.502;2023-05-10T08:00:21;1.95;;;0.82;;
79145;SDS011;68792;53.338;-1.502;2023-05-10T08:02:47;4.70;;;1.23;;
79145;SDS011;68792;53.338;-1.502;2023-05-10T08:05:13;2.50;;;1.05;;
79145;SDS011;68792;53.338;-1.502;2023-05-10T08:07:39;2.00;;;0.85;;
79145;SDS011;68792;53.338;-1.502;2023-05-10T08:10:05;2.50;;;0.90;;
79145;SDS011;68792;53.338;-1.502;2023-05-10T08:12:31;3.17;;;1.10;;
79145;SDS011;68792;53.338;-1.502;2023-05-10T08:14:56;1.80;;;1.00;;
79145;SDS011;68792;53.338;-1.502;2023-05-10T08:17:22;1.65;;;1.02;;
79145;SDS011;68792;53.338;-1.502;2023-05-10T08:19:47;2.63;;;1.10;;
79145;SDS011;68792;53.338;-1.502;2023-05-10T08:22:13;2.05;;;0.95;;
79145;SDS011;68792;53.338;-1.502;2023-05-10T08:24:38;2.78;;;0.90;;
79145;SDS011;68792;53.338;-1.502;2023-05-10T08:27:07;2.63;;;1.02;;
79145;SDS011;68792;53.338;-1.502;2023-05-10T08:29:33;2.00;;;1.20;;
79145;SDS011;68792;53.338;-1.502;2023-05-10T08:31:59;2.20;;;1.52;;
79145;SDS011;68792;53.338;-1.502;2023-05-10T08:34:25;2.70;;;1.08;;
79145;SDS011;68792;53.338;-1.502;2023-05-10T08:36:51;3.08;;;1.17;;
79145;SDS011;68792;53.338;-1.502;2023-05-10T08:39:17;3.78;;;1.15;;
79145;SDS011;68792;53.338;-1.502;2023-05-10T08:41:43;2.42;;;1.00;;
79145;SDS011;68792;53.338;-1.502;2023-05-10T08:44:10;2.28;;;1.10;;
79145;SDS011;68792;53.338;-1.502;2023-05-10T08:46:35;1.67;;;0.80;;
79145;SDS011;68792;53.338;-1.502;2023-05-10T08:49:04;9.88;;;1.70;;
79145;SDS011;68792;53.338;-1.502;2023-05-10T08:51:35;4.93;;;1.35;;
79145;SDS011;68792;53.338;-1.502;2023-05-10T08:54:02;5.57;;;1.30;;
79145;SDS011;68792;53.338;-1.502;2023-05-10T08:56:28;4.57;;;1.42;;
79145;SDS011;68792;53.338;-1.502;2023-05-10T08:58:54;4.75;;;1.50;;
79145;SDS011;68792;53.338;-1.502;2023-05-10T09:01:20;3.45;;;1.17;;
79145;SDS011;68792;53.338;-1.502;2023-05-10T09:03:46;3.33;;;1.13;;
79145;SDS011;68792;53.338;-1.502;2023-05-10T09:06:12;3.65;;;1.20;;
79145;SDS011;68792;53.338;-1.502;2023-05-10T09:08:38;3.78;;;1.33;;
79145;SDS011;68792;53.338;-1.502;2023-05-10T09:11:05;3.40;;;1.45;;
79145;SDS011;68792;53.338;-1.502;2023-05-10T09:13:30;3.38;;;1.30;;
79145;SDS011;68792;53.338;-1.502;2023-05-10T09:15:57;4.63;;;1.10;;
79145;SDS011;68792;53.338;-1.502;2023-05-10T09:18:23;5.82;;;1.20;;
79145;SDS011;68792;53.338;-1.502;2023-05-10T09:20:48;4.57;;;1.33;;
79145;SDS011;68792;53.338;-1.502;2023-05-10T09:23:14;2.13;;;1.00;;
79145;SDS011;68792;53.338;-1.502;2023-05-10T09:25:41;3.67;;;0.80;;
79145;SDS011;68792;53.338;-1.502;2023-05-10T09:28:07;3.15;;;1.20;;
79145;SDS011;68792;53.338;-1.502;2023-05-10T09:30:33;1.83;;;1.00;;
79145;SDS011;68792;53.338;-1.502;2023-05-10T09:32:59;3.30;;;1.40;;
79145;SDS011;68792;53.338;-1.502;2023-05-10T09:37:55;2.75;;;1.10;;
79145;SDS011;68792;53.338;-1.502;2023-05-10T09:40:25;1.25;;;0.77;;
79145;SDS011;68792;53.338;-1.502;2023-05-10T09:45:20;1.90;;;0.95;;
79145;SDS011;68792;53.338;-1.502;2023-05-10T09:47:47;1.33;;;1.00;;
79145;SDS011;68792;53.338;-1.502;2023-05-10T09:50:12;2.53;;;1.23;;
79145;SDS011;68792;53.338;-1.502;2023-05-10T09:55:18;2.58;;;1.02;;
79145;SDS011;68792;53.338;-1.502;2023-05-10T09:57:45;1.90;;;1.10;;
79145;SDS011;68792;53.338;-1.502;2023-05-10T10:00:16;3.85;;;1.27;;
79145;SDS011;68792;53.338;-1.502;2023-05-10T10:02:42;2.42;;;0.85;;
79145;SDS011;68792;53.338;-1.502;2023-05-10T10:05:13;2.53;;;0.80;;
79145;SDS011;68792;53.338;-1.502;2023-05-10T10:07:39;2.75;;;0.88;;
79145;SDS011;68792;53.338;-1.502;2023-05-10T10:10:05;2.55;;;1.30;;
79145;SDS011;68792;53.338;-1.502;2023-05-10T10:14:56;2.15;;;0.98;;
79145;SDS011;68792;53.338;-1.502;2023-05-10T10:17:22;2.13;;;0.80;;
79145;SDS011;68792;53.338;-1.502;2023-05-10T10:19:52;1.95;;;0.98;;
79145;SDS011;68792;53.338;-1.502;2023-05-10T10:22:18;1.58;;;0.77;;
79145;SDS011;68792;53.338;-1.502;2023-05-10T10:24:43;4.57;;;0.90;;
79145;SDS011;68792;53.338;-1.502;2023-05-10T10:27:19;3.25;;;1.25;;
79145;SDS011;68792;53.338;-1.502;2023-05-10T10:32:42;2.67;;;0.85;;
79145;SDS011;68792;53.338;-1.502;2023-05-10T10:37:46;1.27;;;1.00;;
79145;SDS011;68792;53.338;-1.502;2023-05-10T10:42:51;1.52;;;0.82;;
79145;SDS011;68792;53.338;-1.502;2023-05-10T10:45:18;2.67;;;1.05;;
79145;SDS011;68792;53.338;-1.502;2023-05-10T10:47:44;2.60;;;0.80;;
79145;SDS011;68792;53.338;-1.502;2023-05-10T10:50:10;1.60;;;0.90;;
79145;SDS011;68792;53.338;-1.502;2023-05-10T10:52:38;2.28;;;1.00;;
79145;SDS011;68792;53.338;-1.502;2023-05-10T10:55:20;1.48;;;0.80;;
79145;SDS011;68792;53.338;-1.502;2023-05-10T10:57:55;2.33;;;0.80;;
79145;SDS011;68792;53.338;-1.502;2023-05-10T11:00:29;1.30;;;0.75;;
79145;SDS011;68792;53.338;-1.502;2023-05-10T11:02:59;1.52;;;0.70;;
79145;SDS011;68792;53.338;-1.502;2023-05-10T11:05:33;2.90;;;0.90;;
79145;SDS011;68792;53.338;-1.502;2023-05-10T11:13:27;2.58;;;0.70;;
79145;SDS011;68792;53.338;-1.502;2023-05-10T11:15:57;1.67;;;0.90;;
79145;SDS011;68792;53.338;-1.502;2023-05-10T11:18:29;2.75;;;0.95;;
79145;SDS011;68792;53.338;-1.502;2023-05-10T11:23:55;1.33;;;0.70;;
79145;SDS011;68792;53.338;-1.502;2023-05-10T11:26:33;1.35;;;0.70;;
79145;SDS011;68792;53.338;-1.502;2023-05-10T11:29:00;2.55;;;0.82;;
79145;SDS011;68792;53.338;-1.502;2023-05-10T11:31:27;1.48;;;0.80;;
79145;SDS011;68792;53.338;-1.502;2023-05-10T11:33:54;2.13;;;1.20;;
79145;SDS011;68792;53.338;-1.502;2023-05-10T11:36:25;1.00;;;0.70;;
79145;SDS011;68792;53.338;-1.502;2023-05-10T11:38:52;2.22;;;0.70;;
79145;SDS011;68792;53.338;-1.502;2023-05-10T11:41:18;1.80;;;0.80;;
79145;SDS011;68792;53.338;-1.502;2023-05-10T11:43:47;2.25;;;0.80;;
79145;SDS011;68792;53.338;-1.502;2023-05-10T11:46:14;1.92;;;0.95;;
79145;SDS011;68792;53.338;-1.502;2023-05-10T11:48:41;1.30;;;0.77;;
79145;SDS011;68792;53.338;-1.502;2023-05-10T11:51:08;1.75;;;0.80;;
79145;SDS011;68792;53.338;-1.502;2023-05-10T11:56:05;1.00;;;0.70;;
79145;SDS011;68792;53.338;-1.502;2023-05-10T11:58:35;1.73;;;0.63;;
79145;SDS011;68792;53.338;-1.502;2023-05-10T12:01:01;1.70;;;0.60;;
79145;SDS011;68792;53.338;-1.502;2023-05-10T12:05:53;1.48;;;0.85;;
79145;SDS011;68792;53.338;-1.502;2023-05-10T12:08:21;1.90;;;0.85;;
79145;SDS011;68792;53.338;-1.502;2023-05-10T12:10:47;2.20;;;0.80;;
79145;SDS011;68792;53.338;-1.502;2023-05-10T12:13:13;1.30;;;0.60;;
79145;SDS011;68792;53.338;-1.502;2023-05-10T12:15:40;1.67;;;0.65;;
79145;SDS011;68792;53.338;-1.502;2023-05-10T12:18:07;0.80;;;0.45;;
79145;SDS011;68792;53.338;-1.502;2023-05-10T12:20:34;1.83;;;0.60;;
79145;SDS011;68792;53.338;-1.502;2023-05-10T12:22:59;1.10;;;0.60;;
79145;SDS011;68792;53.338;-1.502;2023-05-10T12:25:34;0.90;;;0.60;;
79145;SDS011;68792;53.338;-1.502;2023-05-10T12:28:03;1.45;;;0.82;;
79145;SDS011;68792;53.338;-1.502;2023-05-10T12:30:31;2.03;;;0.65;;
79145;SDS011;68792;53.338;-1.502;2023-05-10T12:33:01;1.30;;;0.57;;
79145;SDS011;68792;53.338;-1.502;2023-05-10T12:35:31;2.17;;;0.90;;
79145;SDS011;68792;53.338;-1.502;2023-05-10T12:37:56;1.17;;;0.80;;
79145;SDS011;68792;53.338;-1.502;2023-05-10T12:40:22;0.75;;;0.50;;
79145;SDS011;68792;53.338;-1.502;2023-05-10T12:42:47;1.77;;;0.55;;
79145;SDS011;68792;53.338;-1.502;2023-05-10T12:45:13;1.83;;;0.80;;
79145;SDS011;68792;53.338;-1.502;2023-05-10T12:47:39;1.85;;;1.00;;
79145;SDS011;68792;53.338;-1.502;2023-05-10T12:50:05;0.88;;;0.50;;
79145;SDS011;68792;53.338;-1.502;2023-05-10T12:52:31;1.63;;;0.60;;
79145;SDS011;68792;53.338;-1.502;2023-05-10T12:54:57;2.47;;;0.68;;
79145;SDS011;68792;53.338;-1.502;2023-05-10T12:57:23;1.98;;;0.90;;
79145;SDS011;68792;53.338;-1.502;2023-05-10T12:59:48;1.77;;;0.75;;
79145;SDS011;68792;53.338;-1.502;2023-05-10T13:02:14;1.48;;;1.08;;
79145;SDS011;68792;53.338;-1.502;2023-05-10T13:04:40;0.93;;;0.55;;
79145;SDS011;68792;53.338;-1.502;2023-05-10T13:09:32;1.52;;;0.50;;
79145;SDS011;68792;53.338;-1.502;2023-05-10T13:11:57;0.73;;;0.52;;
79145;SDS011;68792;53.338;-1.502;2023-05-10T13:14:24;1.00;;;0.70;;
79145;SDS011;68792;53.338;-1.502;2023-05-10T13:16:50;0.82;;;0.40;;
79145;SDS011;68792;53.338;-1.502;2023-05-10T13:19:15;1.88;;;0.70;;
79145;SDS011;68792;53.338;-1.502;2023-05-10T13:21:41;2.45;;;0.52;;
79145;SDS011;68792;53.338;-1.502;2023-05-10T13:24:07;1.10;;;0.40;;
79145;SDS011;68792;53.338;-1.502;2023-05-10T13:26:33;1.30;;;0.40;;
79145;SDS011;68792;53.338;-1.502;2023-05-10T13:28:58;2.35;;;0.73;;
79145;SDS011;68792;53.338;-1.502;2023-05-10T13:31:24;1.98;;;0.77;;
79145;SDS011;68792;53.338;-1.502;2023-05-10T13:33:49;2.83;;;0.77;;
79145;SDS011;68792;53.338;-1.502;2023-05-10T13:36:15;1.45;;;0.70;;
79145;SDS011;68792;53.338;-1.502;2023-05-10T13:38:40;1.58;;;0.50;;
79145;SDS011;68792;53.338;-1.502;2023-05-10T13:41:06;1.40;;;0.63;;
79145;SDS011;68792;53.338;-1.502;2023-05-10T13:43:34;3.17;;;0.80;;
79145;SDS011;68792;53.338;-1.502;2023-05-10T13:46:01;1.20;;;0.82;;
79145;SDS011;68792;53.338;-1.502;2023-05-10T13:48:26;1.55;;;0.60;;
79145;SDS011;68792;53.338;-1.502;2023-05-10T13:50:52;1.02;;;0.50;;
79145;SDS011;68792;53.338;-1.502;2023-05-10T13:53:17;2.97;;;0.47;;
79145;SDS011;68792;53.338;-1.502;2023-05-10T13:55:43;1.52;;;0.38;;
79145;SDS011;68792;53.338;-1.502;2023-05-10T13:58:08;2.28;;;0.63;;
79145;SDS011;68792;53.338;-1.502;2023-05-10T14:00:34;1.60;;;0.32;;
79145;SDS011;68792;53.338;-1.502;2023-05-10T14:02:59;1.77;;;0.38;;
79145;SDS011;68792;53.338;-1.502;2023-05-10T14:05:25;3.78;;;0.50;;
79145;SDS011;68792;53.338;-1.502;2023-05-10T14:07:50;1.25;;;0.45;;
79145;SDS011;68792;53.338;-1.502;2023-05-10T14:10:16;1.38;;;0.40;;
79145;SDS011;68792;53.338;-1.502;2023-05-10T14:12:42;0.60;;;0.30;;
79145;SDS011;68792;53.338;-1.502;2023-05-10T14:15:07;2.05;;;0.50;;
79145;SDS011;68792;53.338;-1.502;2023-05-10T14:17:35;0.95;;;0.20;;
79145;SDS011;68792;53.338;-1.502;2023-05-10T14:20:00;1.88;;;0.30;;
79145;SDS011;68792;53.338;-1.502;2023-05-10T14:22:26;1.55;;;0.20;;
79145;SDS011;68792;53.338;-1.502;2023-05-10T14:24:52;0.85;;;0.20;;
79145;SDS011;68792;53.338;-1.502;2023-05-10T14:27:17;1.60;;;0.28;;
79145;SDS011;68792;53.338;-1.502;2023-05-10T14:29:43;0.50;;;0.38;;
79145;SDS011;68792;53.338;-1.502;2023-05-10T14:32:08;0.65;;;0.28;;
79145;SDS011;68792;53.338;-1.502;2023-05-10T14:34:34;2.15;;;0.32;;
79145;SDS011;68792;53.338;-1.502;2023-05-10T14:36:59;0.80;;;0.10;;
79145;SDS011;68792;53.338;-1.502;2023-05-10T14:39:24;1.23;;;0.40;;
79145;SDS011;68792;53.338;-1.502;2023-05-10T14:41:50;0.90;;;0.40;;
79145;SDS011;68792;53.338;-1.502;2023-05-10T14:44:17;2.55;;;0.40;;
79145;SDS011;68792;53.338;-1.502;2023-05-10T14:46:42;0.70;;;0.20;;
79145;SDS011;68792;53.338;-1.502;2023-05-10T14:49:07;0.63;;;0.30;;
79145;SDS011;68792;53.338;-1.502;2023-05-10T14:51:33;1.33;;;0.63;;
79145;SDS011;68792;53.338;-1.502;2023-05-10T14:53:59;0.90;;;0.50;;
79145;SDS011;68792;53.338;-1.502;2023-05-10T14:56:24;1.95;;;0.20;;
79145;SDS011;68792;53.338;-1.502;2023-05-10T14:58:51;0.75;;;0.30;;
79145;SDS011;68792;53.338;-1.502;2023-05-10T15:01:16;1.00;;;0.40;;
79145;SDS011;68792;53.338;-1.502;2023-05-10T15:03:42;1.17;;;0.20;;
79145;SDS011;68792;53.338;-1.502;2023-05-10T15:06:07;0.88;;;0.20;;
79145;SDS011;68792;53.338;-1.502;2023-05-10T15:08:33;1.30;;;0.30;;
79145;SDS011;68792;53.338;-1.502;2023-05-10T15:10:59;0.43;;;0.17;;
79145;SDS011;68792;53.338;-1.502;2023-05-10T15:13:24;0.82;;;0.20;;
79145;SDS011;68792;53.338;-1.502;2023-05-10T15:15:50;1.67;;;0.30;;
79145;SDS011;68792;53.338;-1.502;2023-05-10T15:18:15;0.43;;;0.30;;
79145;SDS011;68792;53.338;-1.502;2023-05-10T15:20:40;0.40;;;0.10;;
79145;SDS011;68792;53.338;-1.502;2023-05-10T15:23:06;1.38;;;0.30;;
79145;SDS011;68792;53.338;-1.502;2023-05-10T15:25:31;0.50;;;0.20;;
79145;SDS011;68792;53.338;-1.502;2023-05-10T15:27:59;2.03;;;0.32;;
79145;SDS011;68792;53.338;-1.502;2023-05-10T15:30:26;1.30;;;0.30;;
79145;SDS011;68792;53.338;-1.502;2023-05-10T15:32:51;0.63;;;0.20;;
79145;SDS011;68792;53.338;-1.502;2023-05-10T15:35:17;0.75;;;0.55;;